createdAt,value
2018-10-18T00:02:18.821Z,44.10
2018-10-18T00:04:48.541Z,44.30
2018-10-18T00:07:19.235Z,44.30
2018-10-18T00:09:48.769Z,43.97
2018-10-18T00:12:18.297Z,47.77
2018-10-18T00:14:48.906Z,46.13
2018-10-18T00:17:25.317Z,46.33
2018-10-18T00:19:54.742Z,45.70
2018-10-18T00:22:24.734Z,44.10
2018-10-18T00:24:53.997Z,45.93
2018-10-18T00:27:24.381Z,43.63
2018-10-18T00:29:53.737Z,46.20
2018-10-18T00:32:23.481Z,46.47
2018-10-18T00:34:52.708Z,45.50
2018-10-18T00:37:23.104Z,45.30
2018-10-18T00:39:52.661Z,46.33
2018-10-18T00:42:21.980Z,48.10
2018-10-18T00:44:51.841Z,46.00
2018-10-18T00:47:21.065Z,47.20
2018-10-18T00:49:50.137Z,47.27
2018-10-18T00:52:20.496Z,46.57
2018-10-18T00:54:49.617Z,46.80
2018-10-18T00:57:20.021Z,46.67
2018-10-18T00:59:50.640Z,46.77
2018-10-18T01:02:20.900Z,47.30
2018-10-18T01:04:49.958Z,47.63
2018-10-18T01:07:19.148Z,48.20
2018-10-18T01:09:48.164Z,49.10
2018-10-18T01:12:17.390Z,49.07
2018-10-18T01:14:46.498Z,48.30
2018-10-18T01:17:15.751Z,47.23
2018-10-18T01:19:44.851Z,47.27
2018-10-18T01:22:14.106Z,46.83
2018-10-18T01:24:44.548Z,52.87
2018-10-18T01:27:14.831Z,51.80
2018-10-18T01:29:43.940Z,55.40
2018-10-18T01:32:13.122Z,62.10
2018-10-18T01:34:42.265Z,61.93
2018-10-18T01:37:11.515Z,60.50
2018-10-18T01:39:41.618Z,57.17
2018-10-18T01:42:10.728Z,59.77
2018-10-18T01:44:39.848Z,57.93
2018-10-18T01:47:08.975Z,57.60
2018-10-18T01:49:38.248Z,57.07
2018-10-18T01:52:07.459Z,59.87
2018-10-18T01:54:36.565Z,57.97
2018-10-18T01:57:06.287Z,55.30
2018-10-18T01:59:35.356Z,56.40
2018-10-18T02:02:04.798Z,55.80
2018-10-18T02:04:33.878Z,57.07
2018-10-18T02:07:03.015Z,56.77
2018-10-18T02:09:32.155Z,54.23
2018-10-18T02:12:01.326Z,55.30
2018-10-18T02:14:30.435Z,53.90
2018-10-18T02:16:59.552Z,54.40
2018-10-18T02:19:28.654Z,54.77
2018-10-18T02:21:57.833Z,51.27
2018-10-18T02:24:26.890Z,51.10
2018-10-18T02:26:55.979Z,52.93
2018-10-18T02:29:25.639Z,53.20
2018-10-18T02:31:54.836Z,51.33
2018-10-18T02:34:24.031Z,51.07
2018-10-18T02:36:53.398Z,50.80
2018-10-18T02:39:22.677Z,53.87
2018-10-18T02:41:53.744Z,50.93
2018-10-18T02:44:22.848Z,51.97
2018-10-18T02:46:51.935Z,52.87
2018-10-18T02:49:22.521Z,49.87
2018-10-18T02:51:51.570Z,51.87
2018-10-18T02:54:20.708Z,55.73
2018-10-18T02:56:49.748Z,52.37
2018-10-18T02:59:19.237Z,52.53
2018-10-18T03:01:48.257Z,53.33
2018-10-18T03:04:17.352Z,53.90
2018-10-18T03:06:46.445Z,52.43
2018-10-18T03:09:15.677Z,53.60
2018-10-18T03:11:44.880Z,55.07
2018-10-18T03:14:14.081Z,53.07
2018-10-18T03:16:44.547Z,52.50
2018-10-18T03:19:13.645Z,52.07
2018-10-18T03:21:42.645Z,53.27
2018-10-18T03:24:11.764Z,52.77
2018-10-18T03:26:40.832Z,53.20
2018-10-18T03:29:10.036Z,51.43
2018-10-18T03:31:39.242Z,54.23
2018-10-18T03:34:08.426Z,53.63
2018-10-18T03:36:37.600Z,54.83
2018-10-18T03:39:09.069Z,55.70
2018-10-18T03:41:38.223Z,55.97
2018-10-18T03:44:07.463Z,56.73
2018-10-18T03:46:36.526Z,58.33
2018-10-18T03:49:06.195Z,60.57
2018-10-18T03:51:35.834Z,59.30
2018-10-18T03:54:05.104Z,59.97
2018-10-18T03:56:34.075Z,59.30
2018-10-18T03:59:03.160Z,60.80
2018-10-18T04:01:32.205Z,64.00
2018-10-18T04:04:01.306Z,62.97
2018-10-18T04:06:30.395Z,65.57
2018-10-18T04:08:59.496Z,64.60
2018-10-18T04:11:28.541Z,69.07
2018-10-18T04:13:57.718Z,74.93
2018-10-18T04:16:27.063Z,71.80
2018-10-18T04:18:56.163Z,73.63
2018-10-18T04:21:25.254Z,66.10
2018-10-18T04:23:54.360Z,67.00
2018-10-18T04:26:23.454Z,66.87
2018-10-18T04:28:52.550Z,66.80
2018-10-18T04:31:23.676Z,69.70
2018-10-18T04:33:52.799Z,66.43
2018-10-18T04:36:21.887Z,69.37
2018-10-18T04:38:51.068Z,71.77
2018-10-18T04:41:20.188Z,69.27
2018-10-18T04:43:49.211Z,75.40
2018-10-18T04:46:18.347Z,72.90
2018-10-18T04:48:47.516Z,73.70
2018-10-18T04:51:16.724Z,72.20
2018-10-18T04:53:45.880Z,78.63
2018-10-18T04:56:15.125Z,77.10
2018-10-18T04:58:44.175Z,75.97
2018-10-18T05:01:13.467Z,80.03
2018-10-18T05:03:42.461Z,78.33
2018-10-18T05:06:11.633Z,80.87
2018-10-18T05:08:40.716Z,79.40
2018-10-18T05:11:09.902Z,81.10
2018-10-18T05:13:39.010Z,81.57
2018-10-18T05:16:08.215Z,84.90
2018-10-18T05:18:37.611Z,81.37
2018-10-18T05:21:07.069Z,82.67
2018-10-18T05:23:36.110Z,81.23
2018-10-18T05:26:05.504Z,86.27
2018-10-18T05:28:37.423Z,85.90
2018-10-18T05:31:06.679Z,83.53
2018-10-18T05:33:35.713Z,85.33
2018-10-18T05:36:05.106Z,83.43
2018-10-18T05:38:34.344Z,83.67
2018-10-18T05:41:03.527Z,79.97
2018-10-18T05:43:33.717Z,82.87
2018-10-18T05:46:03.340Z,83.23
2018-10-18T05:48:32.814Z,82.20
2018-10-18T05:51:02.257Z,80.30
2018-10-18T05:53:31.712Z,77.07
2018-10-18T05:56:01.036Z,75.87
2018-10-18T05:58:30.230Z,78.10
2018-10-18T06:00:59.543Z,78.07
2018-10-18T06:03:28.872Z,77.33
2018-10-18T06:05:58.356Z,78.63
2018-10-18T06:08:27.626Z,78.93
2018-10-18T06:11:07.830Z,77.73
2018-10-18T06:13:37.294Z,79.13
2018-10-18T06:16:06.597Z,78.97
2018-10-18T06:18:35.789Z,77.80
2018-10-18T06:21:05.026Z,78.47
2018-10-18T06:23:34.294Z,78.70
2018-10-18T06:26:03.581Z,74.63
2018-10-18T06:28:32.880Z,73.07
2018-10-18T06:31:02.277Z,77.77
2018-10-18T06:33:31.607Z,78.40
2018-10-18T06:36:00.945Z,75.60
2018-10-18T06:38:31.014Z,79.17
2018-10-18T06:41:00.426Z,72.47
2018-10-18T06:43:33.833Z,69.77
2018-10-18T06:46:03.158Z,65.27
2018-10-18T06:48:32.355Z,63.50
2018-10-18T06:51:01.434Z,61.10
2018-10-18T06:53:30.822Z,62.50
2018-10-18T06:56:00.258Z,61.83
2018-10-18T06:58:29.679Z,61.43
2018-10-18T07:00:58.781Z,59.60
2018-10-18T07:03:27.986Z,58.03
2018-10-18T07:05:57.169Z,58.77
2018-10-18T07:08:26.333Z,55.57
2018-10-18T07:10:55.568Z,54.87
2018-10-18T07:13:24.729Z,55.27
2018-10-18T07:15:54.097Z,57.73
2018-10-18T07:18:23.293Z,53.87
2018-10-18T07:20:52.550Z,52.90
2018-10-18T07:23:21.965Z,52.23
2018-10-18T07:25:52.067Z,52.33
2018-10-18T07:28:21.419Z,52.00
2018-10-18T07:30:50.703Z,52.53
2018-10-18T07:33:19.960Z,51.30
2018-10-18T07:35:49.346Z,50.53
2018-10-18T07:38:18.592Z,50.80
2018-10-18T07:40:48.045Z,48.80
2018-10-18T07:43:17.500Z,51.73
2018-10-18T07:45:47.134Z,49.33
2018-10-18T07:48:16.545Z,51.53
2018-10-18T07:50:45.721Z,50.57
2018-10-18T07:53:14.871Z,49.20
2018-10-18T07:55:44.351Z,50.43
2018-10-18T07:58:20.235Z,49.77
2018-10-18T08:00:49.560Z,50.13
2018-10-18T08:03:19.441Z,49.83
2018-10-18T08:05:48.691Z,49.53
2018-10-18T08:08:18.118Z,49.77
2018-10-18T08:10:47.813Z,50.70
2018-10-18T08:13:17.223Z,51.17
2018-10-18T08:15:46.638Z,51.27
2018-10-18T08:18:15.999Z,51.67
2018-10-18T08:20:45.558Z,48.63
2018-10-18T08:23:14.899Z,48.93
2018-10-18T08:25:44.490Z,49.93
2018-10-18T08:28:14.064Z,50.27
2018-10-18T08:30:43.414Z,48.90
2018-10-18T08:33:12.615Z,48.47
2018-10-18T08:35:41.918Z,49.20
2018-10-18T08:38:11.252Z,48.43
2018-10-18T08:40:40.789Z,50.50
2018-10-18T08:43:10.540Z,45.63
2018-10-18T08:45:39.912Z,47.53
2018-10-18T08:48:09.497Z,49.37
2018-10-18T08:50:38.940Z,48.37
2018-10-18T08:53:08.323Z,46.50
2018-10-18T08:55:38.053Z,46.90
2018-10-18T08:58:07.720Z,48.37
2018-10-18T09:00:36.869Z,49.73
2018-10-18T09:03:06.397Z,50.97
2018-10-18T09:05:35.739Z,49.53
2018-10-18T09:08:05.624Z,49.00
2018-10-18T09:10:35.096Z,47.17
2018-10-18T09:13:04.612Z,51.70
2018-10-18T09:15:33.943Z,48.90
2018-10-18T09:18:03.394Z,48.10
2018-10-18T09:20:32.845Z,47.87
2018-10-18T09:23:02.461Z,50.50
2018-10-18T09:25:32.193Z,49.27
2018-10-18T09:28:01.332Z,47.93
2018-10-18T09:30:30.905Z,46.80
2018-10-18T09:33:00.149Z,48.67
2018-10-18T09:35:29.484Z,47.70
2018-10-18T09:37:59.043Z,48.53
2018-10-18T09:40:28.314Z,49.93
2018-10-18T09:42:57.838Z,50.40
2018-10-18T09:45:27.189Z,52.40
2018-10-18T09:47:56.533Z,51.27
2018-10-18T09:50:26.128Z,53.80
2018-10-18T09:52:55.621Z,52.10
2018-10-18T09:55:25.100Z,52.87
2018-10-18T09:57:54.177Z,52.53
2018-10-18T10:00:28.670Z,50.63
2018-10-18T10:03:03.181Z,51.03
2018-10-18T10:05:32.600Z,52.57
2018-10-18T10:08:01.904Z,50.10
2018-10-18T10:10:31.415Z,50.87
2018-10-18T10:13:00.830Z,52.03
2018-10-18T10:15:30.323Z,49.63
2018-10-18T10:17:59.515Z,51.13
2018-10-18T10:20:28.928Z,53.23
2018-10-18T10:22:58.232Z,51.50
2018-10-18T10:25:28.322Z,51.90
2018-10-18T10:27:57.893Z,49.33
2018-10-18T10:30:27.549Z,48.87
2018-10-18T10:32:57.141Z,49.90
2018-10-18T10:35:26.521Z,46.97
2018-10-18T10:37:55.804Z,45.17
2018-10-18T10:40:25.449Z,45.03
2018-10-18T10:42:55.189Z,44.30
2018-10-18T10:45:25.389Z,43.40
2018-10-18T10:47:55.088Z,42.77
2018-10-18T10:50:24.588Z,44.20
2018-10-18T10:52:54.038Z,43.40
2018-10-18T10:55:23.697Z,43.50
2018-10-18T10:57:53.362Z,41.53
2018-10-18T11:00:33.672Z,41.03
2018-10-18T11:03:03.204Z,41.03
2018-10-18T11:05:32.820Z,36.40
2018-10-18T11:08:02.397Z,38.40
2018-10-18T11:10:31.903Z,36.10
2018-10-18T11:13:01.726Z,33.87
2018-10-18T11:15:31.357Z,35.97
2018-10-18T11:18:00.907Z,34.33
2018-10-18T11:20:30.366Z,35.13
2018-10-18T11:23:00.094Z,32.70
2018-10-18T11:25:29.602Z,32.57
2018-10-18T11:27:59.251Z,31.83
2018-10-18T11:30:28.910Z,32.13
2018-10-18T11:32:58.485Z,30.30
2018-10-18T11:35:27.693Z,30.27
2018-10-18T11:37:57.354Z,30.27
2018-10-18T11:40:27.047Z,30.67
2018-10-18T11:42:56.219Z,28.70
2018-10-18T11:45:25.513Z,30.43
2018-10-18T11:47:55.040Z,30.73
2018-10-18T11:50:25.684Z,30.03
2018-10-18T11:52:55.071Z,29.37
2018-10-18T11:55:24.526Z,29.77
2018-10-18T11:57:53.958Z,29.73
2018-10-18T12:00:23.295Z,29.03
2018-10-18T12:02:52.765Z,30.30
2018-10-18T12:05:22.090Z,28.93
2018-10-18T12:07:51.525Z,30.07
2018-10-18T12:10:20.928Z,28.23
2018-10-18T12:12:50.568Z,28.47
2018-10-18T12:15:19.763Z,26.83
2018-10-18T12:17:49.302Z,30.87
2018-10-18T12:20:19.266Z,28.97
2018-10-18T12:22:48.757Z,28.17
2018-10-18T12:25:18.142Z,27.80
2018-10-18T12:27:47.807Z,28.47
2018-10-18T12:30:17.467Z,26.70
2018-10-18T12:32:46.902Z,27.67
2018-10-18T12:35:16.335Z,28.70
2018-10-18T12:37:45.693Z,30.33
2018-10-18T12:40:15.217Z,26.83
2018-10-18T12:43:04.477Z,27.80
2018-10-18T12:45:33.903Z,26.07
2018-10-18T12:48:03.338Z,26.93
2018-10-18T12:50:32.894Z,27.73
2018-10-18T12:53:02.186Z,28.13
2018-10-18T12:55:31.776Z,27.57
2018-10-18T12:58:01.189Z,26.50
2018-10-18T13:00:31.002Z,27.03
2018-10-18T13:03:00.395Z,25.43
2018-10-18T13:05:30.456Z,25.90
2018-10-18T13:07:59.875Z,27.10
2018-10-18T13:10:29.481Z,26.30
2018-10-18T13:12:58.929Z,28.40
2018-10-18T13:15:28.400Z,27.80
2018-10-18T13:17:58.338Z,26.57
2018-10-18T13:20:27.854Z,27.07
2018-10-18T13:22:57.233Z,27.03
2018-10-18T13:25:26.710Z,28.50
2018-10-18T13:27:56.199Z,27.70
2018-10-18T13:30:25.822Z,28.83
2018-10-18T13:32:55.393Z,27.70
2018-10-18T13:35:24.838Z,29.57
2018-10-18T13:37:54.097Z,27.10
2018-10-18T13:40:23.411Z,27.70
2018-10-18T13:42:52.805Z,27.23
2018-10-18T13:45:22.258Z,28.30
2018-10-18T13:47:51.993Z,27.93
2018-10-18T13:50:21.516Z,28.87
2018-10-18T13:52:50.910Z,28.83
2018-10-18T13:55:20.602Z,29.63
2018-10-18T13:57:49.859Z,29.63
2018-10-18T14:00:23.193Z,29.43
2018-10-18T14:02:53.584Z,29.80
2018-10-18T14:05:23.399Z,30.07
2018-10-18T14:07:53.875Z,31.27
2018-10-18T14:10:23.218Z,31.73
2018-10-18T14:12:53.190Z,30.50
2018-10-18T14:15:22.606Z,30.67
2018-10-18T14:17:52.023Z,28.50
2018-10-18T14:20:21.381Z,27.37
2018-10-18T14:22:50.793Z,28.20
2018-10-18T14:25:20.329Z,27.80
2018-10-18T14:27:49.702Z,27.17
2018-10-18T14:30:19.064Z,28.27
2018-10-18T14:32:48.310Z,27.67
2018-10-18T14:35:17.953Z,27.47
2018-10-18T14:37:47.569Z,27.37
2018-10-18T14:40:16.968Z,26.13
2018-10-18T14:42:46.744Z,27.50
2018-10-18T14:45:16.016Z,28.23
2018-10-18T14:47:45.401Z,26.80
2018-10-18T14:50:15.157Z,26.87
2018-10-18T14:52:44.828Z,25.53
2018-10-18T14:55:14.220Z,25.10
2018-10-18T14:57:43.608Z,25.67
2018-10-18T15:00:13.780Z,24.33
2018-10-18T15:02:43.536Z,25.00
2018-10-18T15:05:13.716Z,25.27
2018-10-18T15:07:43.109Z,25.77
2018-10-18T15:10:13.456Z,25.77
2018-10-18T15:12:42.979Z,25.00
2018-10-18T15:15:13.653Z,24.67
2018-10-18T15:17:43.167Z,24.53
2018-10-18T15:20:13.267Z,24.33
2018-10-18T15:22:43.217Z,22.53
2018-10-18T15:25:13.321Z,18.63
2018-10-18T15:27:43.500Z,16.97
2018-10-18T15:30:13.229Z,15.90
2018-10-18T15:32:42.639Z,14.00
2018-10-18T15:35:12.352Z,14.60
2018-10-18T15:37:42.237Z,12.07
2018-10-18T15:40:11.691Z,13.13
2018-10-18T15:42:40.873Z,12.33
2018-10-18T15:45:10.644Z,13.17
2018-10-18T15:47:40.086Z,12.23
2018-10-18T15:50:10.388Z,12.77
2018-10-18T15:52:39.645Z,11.70
2018-10-18T15:55:09.351Z,10.97
2018-10-18T15:57:38.669Z,11.33
2018-10-18T16:00:09.753Z,11.00
2018-10-18T16:02:38.986Z,12.93
2018-10-18T16:05:08.056Z,11.67
2018-10-18T16:07:37.669Z,12.40
2018-10-18T16:10:07.867Z,12.00
2018-10-18T16:12:37.318Z,11.87
2018-10-18T16:15:07.667Z,12.50
2018-10-18T16:17:37.357Z,11.93
2018-10-18T16:20:08.043Z,12.27
2018-10-18T16:22:37.975Z,13.60
2018-10-18T16:25:07.872Z,12.47
2018-10-18T16:27:37.538Z,13.17
2018-10-18T16:30:07.357Z,12.17
2018-10-18T16:32:36.527Z,13.07
2018-10-18T16:35:06.049Z,12.30
2018-10-18T16:37:35.368Z,12.20
2018-10-18T16:40:04.678Z,11.57
2018-10-18T16:42:33.702Z,12.33
2018-10-18T16:45:03.083Z,11.67
2018-10-18T16:47:32.360Z,11.23
2018-10-18T16:50:02.015Z,10.63
2018-10-18T16:52:31.980Z,9.67
2018-10-18T16:55:01.871Z,9.63
2018-10-18T16:57:30.948Z,9.77
2018-10-18T17:00:00.115Z,9.13
2018-10-18T17:02:29.442Z,9.47
2018-10-18T17:04:59.011Z,9.50
2018-10-18T17:07:29.232Z,9.33
2018-10-18T17:09:58.887Z,8.37
2018-10-18T17:12:28.112Z,8.10
2018-10-18T17:14:57.180Z,8.23
2018-10-18T17:17:26.306Z,7.30
2018-10-18T17:19:55.370Z,8.13
2018-10-18T17:22:25.581Z,7.40
2018-10-18T17:24:54.885Z,8.20
2018-10-18T17:27:24.209Z,8.60
2018-10-18T17:29:54.055Z,8.10
2018-10-18T17:32:25.217Z,7.87
2018-10-18T17:34:54.302Z,8.63
2018-10-18T17:37:23.353Z,8.03
2018-10-18T17:39:52.530Z,8.30
2018-10-18T17:42:21.709Z,7.60
2018-10-18T17:44:52.636Z,7.70
2018-10-18T17:47:22.711Z,8.07
2018-10-18T17:49:52.115Z,8.10
2018-10-18T17:52:21.173Z,9.10
2018-10-18T17:54:50.732Z,8.70
2018-10-18T17:57:20.290Z,8.30
2018-10-18T17:59:49.752Z,8.37
2018-10-18T18:02:19.345Z,8.43
2018-10-18T18:04:48.902Z,7.87
2018-10-18T18:07:18.310Z,8.17
2018-10-18T18:09:47.796Z,7.87
2018-10-18T18:12:17.080Z,8.40
2018-10-18T18:14:46.252Z,7.97
2018-10-18T18:17:15.776Z,8.07
2018-10-18T18:19:46.357Z,8.17
2018-10-18T18:22:15.636Z,8.53
2018-10-18T18:24:45.855Z,8.23
2018-10-18T18:27:16.163Z,8.10
2018-10-18T18:29:45.633Z,7.90
2018-10-18T18:32:15.272Z,8.17
2018-10-18T18:34:46.334Z,8.33
2018-10-18T18:37:15.736Z,9.57
2018-10-18T18:39:44.930Z,8.10
2018-10-18T18:42:14.071Z,8.60
2018-10-18T18:44:44.700Z,8.67
2018-10-18T18:47:16.938Z,8.27
2018-10-18T18:49:46.789Z,7.97
2018-10-18T18:52:16.276Z,8.60
2018-10-18T18:54:45.408Z,8.77
2018-10-18T18:57:14.760Z,8.90
2018-10-18T18:59:45.348Z,8.30
2018-10-18T19:02:14.596Z,8.07
2018-10-18T19:04:44.244Z,8.70
2018-10-18T19:07:13.679Z,8.50
2018-10-18T19:09:43.255Z,9.23
2018-10-18T19:12:12.525Z,8.57
2018-10-18T19:14:43.800Z,9.30
2018-10-18T19:17:13.492Z,9.57
2018-10-18T19:19:43.005Z,10.30
2018-10-18T19:22:12.445Z,11.00
2018-10-18T19:24:41.669Z,10.47
2018-10-18T19:27:12.316Z,10.90
2018-10-18T19:29:41.845Z,11.23
2018-10-18T19:32:11.582Z,11.70
2018-10-18T19:34:41.228Z,11.37
2018-10-18T19:37:10.348Z,11.10
2018-10-18T19:39:39.480Z,10.83
2018-10-18T19:42:10.141Z,11.03
2018-10-18T19:44:39.518Z,11.10
2018-10-18T19:47:09.920Z,11.67
2018-10-18T19:49:40.363Z,11.17
2018-10-18T19:52:09.606Z,10.83
2018-10-18T19:54:38.702Z,11.40
2018-10-18T19:57:08.484Z,10.57
2018-10-18T19:59:37.786Z,11.33
2018-10-18T20:02:07.400Z,11.73
2018-10-18T20:04:37.323Z,10.87
2018-10-18T20:07:06.738Z,11.80
2018-10-18T20:09:36.064Z,11.83
2018-10-18T20:12:06.259Z,11.20
2018-10-18T20:14:35.493Z,10.83
2018-10-18T20:17:06.662Z,11.53
2018-10-18T20:19:35.875Z,11.93
2018-10-18T20:22:07.984Z,12.07
2018-10-18T20:24:43.798Z,10.80
2018-10-18T20:27:13.127Z,10.83
2018-10-18T20:29:42.373Z,12.03
2018-10-18T20:32:11.869Z,12.17
2018-10-18T20:34:43.058Z,12.53
2018-10-18T20:37:12.283Z,12.37
2018-10-18T20:39:41.730Z,12.00
2018-10-18T20:42:10.790Z,12.53
2018-10-18T20:44:39.799Z,12.07
2018-10-18T20:47:09.013Z,12.00
2018-10-18T20:49:38.114Z,13.20
2018-10-18T20:52:07.211Z,13.43
2018-10-18T20:54:38.130Z,14.63
2018-10-18T20:57:07.247Z,13.60
2018-10-18T20:59:36.225Z,14.20
2018-10-18T21:02:06.382Z,13.57
2018-10-18T21:04:36.617Z,14.00
2018-10-18T21:07:05.985Z,14.47
2018-10-18T21:09:34.975Z,15.00
2018-10-18T21:12:04.144Z,13.83
2018-10-18T21:14:33.370Z,14.97
2018-10-18T21:17:02.630Z,14.33
2018-10-18T21:19:32.945Z,13.80
2018-10-18T21:22:02.246Z,14.80
2018-10-18T21:24:31.386Z,14.20
2018-10-18T21:27:01.503Z,14.20
2018-10-18T21:29:30.577Z,15.53
2018-10-18T21:31:59.675Z,14.70
2018-10-18T21:34:28.977Z,14.27
2018-10-18T21:36:58.048Z,14.87
2018-10-18T21:39:30.645Z,14.20
2018-10-18T21:42:00.029Z,14.60
2018-10-18T21:44:31.569Z,16.10
2018-10-18T21:47:01.326Z,15.00
2018-10-18T21:49:31.840Z,15.97
2018-10-18T21:52:02.391Z,15.83
2018-10-18T21:54:31.641Z,16.47
2018-10-18T21:57:00.984Z,16.17
2018-10-18T21:59:30.014Z,16.30
2018-10-18T22:01:59.284Z,16.83
2018-10-18T22:04:28.429Z,16.63
2018-10-18T22:06:57.753Z,16.20
2018-10-18T22:09:27.733Z,17.63
2018-10-18T22:11:58.111Z,17.70
2018-10-18T22:14:27.309Z,17.07
2018-10-18T22:16:56.547Z,16.17
2018-10-18T22:19:26.620Z,17.17
2018-10-18T22:21:55.607Z,16.83
2018-10-18T22:24:24.691Z,17.27
2018-10-18T22:26:53.875Z,16.87
2018-10-18T22:29:23.123Z,18.27
2018-10-18T22:31:53.732Z,17.73
2018-10-18T22:34:22.835Z,17.47
2018-10-18T22:36:52.530Z,18.57
2018-10-18T22:39:22.679Z,19.30
2018-10-18T22:41:51.738Z,18.80
2018-10-18T22:44:20.802Z,16.97
2018-10-18T22:46:50.235Z,18.13
2018-10-18T22:49:19.449Z,17.93
2018-10-18T22:51:48.491Z,19.10
2018-10-18T22:54:17.736Z,18.10
2018-10-18T22:56:47.036Z,18.63
2018-10-18T22:59:18.563Z,19.17
2018-10-18T23:01:48.634Z,19.70
2018-10-18T23:04:18.867Z,19.77
2018-10-18T23:06:48.039Z,18.87
2018-10-18T23:09:18.340Z,20.17
2018-10-18T23:11:47.400Z,22.17
2018-10-18T23:14:16.511Z,20.60
2018-10-18T23:16:45.605Z,21.27
2018-10-18T23:19:14.669Z,20.37
2018-10-18T23:21:43.714Z,20.30
2018-10-18T23:24:12.767Z,19.80
2018-10-18T23:26:42.017Z,20.23
2018-10-18T23:29:11.120Z,20.93
2018-10-18T23:31:40.101Z,20.93
2018-10-18T23:34:10.011Z,20.77
2018-10-18T23:36:39.176Z,20.93
2018-10-18T23:39:09.718Z,21.87
2018-10-18T23:41:38.818Z,22.93
2018-10-18T23:44:07.834Z,23.07
2018-10-18T23:46:36.999Z,22.97
2018-10-18T23:49:06.330Z,21.73
2018-10-18T23:51:35.394Z,22.63
2018-10-18T23:54:04.549Z,23.03
2018-10-18T23:56:33.904Z,23.73
2018-10-18T23:59:02.965Z,21.07
